Time;durP1;ratioP1;P1;durP2;ratioP2;P2;SDS_P1;SDS_P2;PMS_P1;PMS_P2;Temp;Humidity;BMP_temperature;BMP_pressure;BME280_temperature;BME280_humidity;BME280_pressure;Samples;Min_cycle;Max_cycle;Signal;HPM_P1;HPM_P2
2023/05/13 00:00:12;;;;;;;12.68;9.27;;;;;;;12.98;79.00;101951.59;6158187;23;20342;-82
2023/05/13 00:02:37;;;;;;;11.23;9.23;;;;;;;12.94;79.57;101955.13;6134002;23;20064;-82
2023/05/13 00:05:03;;;;;;;10.35;8.63;;;;;;;12.94;80.00;101957.75;6158491;23;20008;-82
2023/05/13 00:07:28;;;;;;;11.18;9.55;;;;;;;12.90;79.44;101949.00;6134011;23;20013;-83
2023/05/13 00:09:54;;;;;;;10.32;8.77;;;;;;;12.90;78.75;101949.00;6133461;23;20013;-82
2023/05/13 00:12:19;;;;;;;11.75;9.30;;;;;;;12.88;79.09;101940.22;6134764;23;20009;-82
2023/05/13 00:14:45;;;;;;;10.30;8.85;;;;;;;12.88;77.97;101945.50;6133752;23;20112;-82
2023/05/13 00:17:12;;;;;;;11.48;9.15;;;;;;;12.86;78.24;101947.25;6134430;23;20103;-83
2023/05/13 00:19:37;;;;;;;9.18;8.30;;;;;;;12.84;78.30;101938.47;6133883;23;20096;-82
2023/05/13 00:22:03;;;;;;;10.07;8.82;;;;;;;12.78;78.88;101946.41;6134966;23;20033;-83
2023/05/13 00:24:28;;;;;;;8.85;7.85;;;;;;;12.79;77.32;101941.13;6133941;23;20442;-82
2023/05/13 00:26:54;;;;;;;17.23;8.63;;;;;;;12.78;77.87;101943.78;6109877;23;20041;-83
2023/05/13 00:29:20;;;;;;;10.02;8.52;;;;;;;12.75;77.58;101939.41;6134356;23;20443;-83
2023/05/13 00:31:45;;;;;;;12.85;8.90;;;;;;;12.72;77.41;101935.91;6133927;23;20048;-83
2023/05/13 00:34:10;;;;;;;13.70;8.20;;;;;;;12.71;77.26;101939.41;6134433;23;20461;-82
2023/05/13 00:36:38;;;;;;;9.98;8.48;;;;;;;12.64;77.64;101943.81;6109990;23;20087;-83
2023/05/13 00:39:04;;;;;;;8.93;8.02;;;;;;;12.62;77.00;101938.56;6109472;23;20427;-82
2023/05/13 00:41:29;;;;;;;12.63;8.75;;;;;;;12.62;77.15;101948.22;6133904;23;20016;-83
2023/05/13 00:43:58;;;;;;;8.90;8.00;;;;;;;12.55;78.22;101941.22;6110140;23;20009;-84
2023/05/13 00:46:24;;;;;;;10.15;8.73;;;;;;;12.52;77.81;101951.75;6135077;23;20012;-83
2023/05/13 00:48:50;;;;;;;9.55;7.22;;;;;;;12.51;77.42;101949.97;6134135;23;20063;-83
2023/05/13 00:51:17;;;;;;;10.00;9.00;;;;;;;12.41;79.12;101941.22;6133760;23;20332;-83
2023/05/13 00:53:42;;;;;;;10.75;8.43;;;;;;;12.39;78.85;101957.00;6133852;23;20005;-83
2023/05/13 00:56:10;;;;;;;9.77;8.35;;;;;;;12.32;79.00;101950.00;6159402;23;20416;-83
2023/05/13 00:58:36;;;;;;;10.82;8.65;;;;;;;12.27;78.74;101946.53;6110179;23;20009;-84
2023/05/13 01:01:01;;;;;;;12.48;9.02;;;;;;;12.20;79.71;101944.78;6158547;23;20376;-83
2023/05/13 01:04:10;;;;;;;11.25;9.25;;;;;;;12.18;79.73;101947.38;6184390;23;20005;-83
2023/05/13 01:07:06;;;;;;;10.63;9.50;;;;;;;12.07;80.13;101952.66;6157917;23;20092;-83
2023/05/13 01:09:56;;;;;;;12.80;9.70;;;;;;;12.04;80.26;101950.03;6184278;23;20009;-84
2023/05/13 01:12:31;;;;;;;12.52;9.70;;;;;;;11.93;80.74;101941.25;6158031;23;20012;-75
2023/05/13 01:15:19;;;;;;;13.15;9.98;;;;;;;11.93;80.47;101941.25;6158327;23;20088;-84
2023/05/13 01:18:09;;;;;;;12.48;9.63;;;;;;;11.82;81.13;101937.75;6157591;23;20017;-83
2023/05/13 01:20:39;;;;;;;13.50;9.30;;;;;;;11.75;80.86;101943.00;6158088;23;20009;-83
2023/05/13 01:23:05;;;;;;;;;;;;;;;11.84;80.54;101946.47;6158186;23;20005;-82
2023/05/13 01:25:31;;;;;;;11.65;9.77;;;;;;;11.67;81.15;101947.34;6132992;23;19908;-83
2023/05/13 01:27:56;;;;;;;12.45;10.30;;;;;;;11.60;81.60;101937.72;6157885;23;20005;-82
2023/05/13 01:30:22;;;;;;;11.98;10.52;;;;;;;11.56;81.78;101941.22;6157538;23;20009;-83
2023/05/13 01:32:49;;;;;;;11.15;9.85;;;;;;;11.50;82.15;101943.81;6133741;23;20009;-83
2023/05/13 01:35:16;;;;;;;12.13;10.80;;;;;;;11.44;82.16;101942.94;6158483;23;20012;-83
2023/05/13 01:37:42;;;;;;;12.85;10.30;;;;;;;11.40;82.12;101949.03;6133006;23;20092;-83
2023/05/13 01:40:09;;;;;;;14.70;9.98;;;;;;;11.37;82.33;101946.41;6157662;23;20103;-83
2023/05/13 01:42:35;;;;;;;14.00;10.52;;;;;;;11.35;83.34;101947.28;6134392;23;20044;-83
2023/05/13 01:45:01;;;;;;;13.10;10.15;;;;;;;11.32;83.26;101952.53;6158352;23;20009;-84
2023/05/13 01:47:28;;;;;;;14.30;10.57;;;;;;;11.26;83.44;101945.50;6133593;23;20017;-84
2023/05/13 01:49:53;;;;;;;11.75;10.55;;;;;;;11.19;83.83;101947.25;6109264;23;20347;-83
2023/05/13 01:52:19;;;;;;;11.50;10.02;;;;;;;11.16;83.03;101944.63;6157973;23;20015;-83
2023/05/13 01:54:45;;;;;;;12.60;10.43;;;;;;;11.11;82.99;101948.09;6157951;23;20012;-83
2023/05/13 01:57:10;;;;;;;11.38;9.98;;;;;;;11.05;83.09;101944.56;6157553;23;20493;-83
2023/05/13 01:59:36;;;;;;;15.75;10.73;;;;;;;10.99;83.51;101943.66;6133448;23;20009;-84
2023/05/13 02:02:02;;;;;;;13.48;11.05;;;;;;;10.91;83.31;101944.50;6132550;23;20012;-83
2023/05/13 02:04:28;;;;;;;12.13;10.65;;;;;;;10.88;83.24;101941.00;6132636;23;20410;-83
2023/05/13 02:06:53;;;;;;;13.95;10.93;;;;;;;10.85;83.21;101946.25;6108308;23;20016;-83
2023/05/13 02:09:19;;;;;;;13.40;10.35;;;;;;;10.84;83.30;101953.19;6107889;23;20091;-84
2023/05/13 02:11:45;;;;;;;11.55;10.07;;;;;;;10.78;83.94;101940.06;6109110;23;20016;-82
2023/05/13 02:14:10;;;;;;;13.88;9.80;;;;;;;10.73;84.15;101953.16;6156988;23;20012;-82
2023/05/13 02:16:36;;;;;;;12.07;10.68;;;;;;;10.71;83.95;101954.03;6132779;23;20119;-83
2023/05/13 02:19:01;;;;;;;13.82;11.10;;;;;;;10.64;84.22;101958.34;6133497;23;20072;-84
2023/05/13 02:21:27;;;;;;;15.98;10.90;;;;;;;10.60;84.21;101953.94;6133244;23;20395;-83
2023/05/13 02:23:52;;;;;;;12.32;10.63;;;;;;;10.55;84.03;101953.91;6183923;23;20407;-83
2023/05/13 02:26:18;;;;;;;11.43;10.23;;;;;;;10.52;84.57;101953.03;6157621;23;20127;-76
2023/05/13 02:28:43;;;;;;;12.98;9.93;;;;;;;10.49;84.33;101958.28;6131544;23;20339;-76
2023/05/13 02:31:09;;;;;;;12.48;11.00;;;;;;;10.46;84.57;101953.88;6157444;23;20009;-84
2023/05/13 02:33:34;;;;;;;13.13;10.05;;;;;;;10.45;84.17;101952.13;6108778;23;20009;-83
2023/05/13 02:36:00;;;;;;;12.68;10.35;;;;;;;10.40;84.24;101956.44;6133495;23;20009;-76
2023/05/13 02:38:25;;;;;;;13.13;9.85;;;;;;;10.42;84.20;101953.84;6132845;23;20456;-75
2023/05/13 02:40:51;;;;;;;13.10;10.57;;;;;;;10.35;84.34;101951.16;6133770;23;20009;-75
2023/05/13 02:43:16;;;;;;;12.45;10.40;;;;;;;10.28;84.20;101941.47;6110822;23;20013;-83
2023/05/13 02:45:43;;;;;;;14.43;10.63;;;;;;;10.30;84.01;101946.72;6160128;23;20013;-84
2023/05/13 02:48:09;;;;;;;11.73;10.52;;;;;;;10.24;84.33;101947.56;6110687;23;20015;-84
2023/05/13 02:50:35;;;;;;;12.32;10.40;;;;;;;10.17;84.30;101944.03;6135997;23;20060;-83
2023/05/13 02:53:00;;;;;;;12.57;10.18;;;;;;;10.16;84.17;101955.38;6135242;23;20412;-83
2023/05/13 02:55:26;;;;;;;12.68;9.95;;;;;;;10.13;84.47;101947.50;6159906;23;20005;-84
2023/05/13 02:57:51;;;;;;;13.10;10.13;;;;;;;10.15;84.41;101947.50;6133968;23;20449;-83
2023/05/13 03:00:17;;;;;;;10.85;9.65;;;;;;;10.12;84.29;101950.09;6110466;23;20043;-83
2023/05/13 03:02:42;;;;;;;11.57;9.68;;;;;;;10.09;84.05;101947.47;6110564;23;20009;-83
2023/05/13 03:05:08;;;;;;;11.20;9.68;;;;;;;10.06;84.11;101946.56;6159178;23;20013;-84
2023/05/13 03:07:34;;;;;;;12.60;10.20;;;;;;;10.08;83.88;101945.69;6134058;23;20432;-83
2023/05/13 03:10:00;;;;;;;12.40;10.50;;;;;;;10.05;83.83;101936.06;6133736;23;20016;-84
2023/05/13 03:12:25;;;;;;;11.43;10.07;;;;;;;10.01;84.15;101935.19;6158737;23;20093;-84
2023/05/13 03:14:51;;;;;;;10.35;9.25;;;;;;;9.97;83.94;101930.78;6110071;23;20036;-83
2023/05/13 03:17:16;;;;;;;12.50;9.73;;;;;;;9.96;83.95;101930.78;6112318;23;20020;-84
2023/05/13 03:19:42;;;;;;;11.88;10.43;;;;;;;9.93;84.16;101929.00;6129905;23;20344;-75
2023/05/13 03:22:07;;;;;;;11.48;10.38;;;;;;;9.91;83.66;101942.94;6081300;23;20014;-75
2023/05/13 03:24:33;;;;;;;13.93;9.32;;;;;;;9.87;83.93;101936.81;6080563;23;20009;-83
2023/05/13 03:26:58;;;;;;;12.10;9.90;;;;;;;9.85;84.30;101943.75;6104995;23;20022;-84
2023/05/13 03:29:24;;;;;;;11.75;10.20;;;;;;;9.76;84.56;101947.16;6105065;23;20436;-84
2023/05/13 03:31:49;;;;;;;14.73;10.45;;;;;;;9.73;84.39;101946.28;6080884;23;20080;-84
2023/05/13 03:34:15;;;;;;;11.60;10.13;;;;;;;9.69;84.57;101948.84;6105630;23;20013;-85
2023/05/13 03:36:40;;;;;;;12.13;9.75;;;;;;;9.64;84.75;101953.19;6104979;23;20456;-85
2023/05/13 03:39:06;;;;;;;12.15;10.48;;;;;;;9.60;84.90;101951.38;6129129;23;20005;-84
2023/05/13 03:41:34;;;;;;;11.75;9.80;;;;;;;9.56;84.73;101952.22;6105465;23;20016;-84
2023/05/13 03:43:59;;;;;;;14.50;11.63;;;;;;;9.53;84.82;101946.94;6081586;23;20096;-84
2023/05/13 03:46:26;;;;;;;13.90;10.05;;;;;;;9.51;85.25;101953.88;6080330;23;20045;-84
2023/05/13 03:48:53;;;;;;;11.02;9.82;;;;;;;9.50;85.25;101962.63;6104266;23;20017;-76
2023/05/13 03:51:19;;;;;;;12.07;9.85;;;;;;;9.48;85.33;101959.09;6127822;23;20009;-76
2023/05/13 03:53:45;;;;;;;11.48;9.40;;;;;;;9.46;85.13;101955.59;6104418;23;20364;-84
2023/05/13 03:56:10;;;;;;;11.95;10.23;;;;;;;9.41;85.26;101954.66;6080398;23;20009;-84
2023/05/13 03:58:37;;;;;;;11.25;9.50;;;;;;;9.35;85.39;101948.53;6104879;23;20032;-84
2023/05/13 04:01:03;;;;;;;15.13;9.82;;;;;;;9.38;85.70;101954.63;6104723;23;20112;-76
2023/05/13 04:03:28;;;;;;;12.40;10.55;;;;;;;9.34;86.04;101957.22;6080960;23;20100;-75
2023/05/13 04:05:54;;;;;;;12.85;10.93;;;;;;;9.30;86.52;101954.56;6129179;23;20033;-76
2023/05/13 04:08:19;;;;;;;12.95;11.00;;;;;;;9.29;86.72;101951.03;6128461;23;20009;-75
2023/05/13 04:10:45;;;;;;;13.07;10.63;;;;;;;9.28;87.04;101951.03;6104821;23;20025;-75
2023/05/13 04:13:10;;;;;;;12.30;10.93;;;;;;;9.28;87.08;101946.69;6104533;23;20428;-75
2023/05/13 04:15:36;;;;;;;13.50;11.32;;;;;;;9.29;87.06;101953.66;6131173;23;20053;-84
2023/05/13 04:18:01;;;;;;;13.75;12.25;;;;;;;9.31;87.37;101957.19;6134514;23;20621;-84
2023/05/13 04:20:27;;;;;;;14.60;10.90;;;;;;;9.30;87.52;101952.81;6159004;23;20009;-84
2023/05/13 04:22:53;;;;;;;12.40;11.10;;;;;;;9.33;87.73;101958.06;6109824;23;20009;-83
2023/05/13 04:25:19;;;;;;;13.90;11.65;;;;;;;9.33;87.56;101960.69;6158991;23;20012;-84
2023/05/13 04:27:46;;;;;;;16.05;12.23;;;;;;;9.35;88.31;101964.22;6109727;23;20013;-84
2023/05/13 04:30:12;;;;;;;14.82;12.02;;;;;;;9.38;88.38;101962.47;6109435;23;20096;-83
2023/05/13 04:32:38;;;;;;;14.07;11.73;;;;;;;9.43;88.91;101963.41;6158210;23;20009;-84
2023/05/13 04:35:04;;;;;;;15.10;12.38;;;;;;;9.51;88.65;101969.59;6133666;23;20436;-84
2023/05/13 04:37:29;;;;;;;15.43;12.95;;;;;;;9.57;88.49;101971.41;6133838;23;20012;-84
2023/05/13 04:39:56;;;;;;;14.23;12.32;;;;;;;9.66;88.73;101972.38;6109384;23;20017;-84
2023/05/13 04:42:22;;;;;;;14.80;12.50;;;;;;;9.73;89.12;101964.59;6155274;23;20036;-84
2023/05/13 04:44:47;;;;;;;18.35;12.80;;;;;;;9.82;88.47;101975.16;6106970;23;20039;-77
2023/05/13 04:47:13;;;;;;;15.68;12.15;;;;;;;9.89;88.67;101969.97;6132007;23;20017;-76
2023/05/13 04:49:38;;;;;;;13.95;12.45;;;;;;;9.99;88.38;101973.56;6131370;23;20088;-75
2023/05/13 04:52:05;;;;;;;15.05;12.48;;;;;;;10.08;88.15;101975.38;6131926;23;20009;-74
2023/05/13 04:54:30;;;;;;;14.90;12.63;;;;;;;10.19;87.97;101971.09;6132201;23;20009;-74
2023/05/13 04:56:56;;;;;;;18.25;12.23;;;;;;;10.23;86.93;101972.03;6133851;23;20019;-75
2023/05/13 04:59:21;;;;;;;12.88;11.57;;;;;;;10.39;86.70;101979.16;6132633;23;20071;-74
2023/05/13 05:01:47;;;;;;;12.82;11.43;;;;;;;10.46;86.96;101979.19;6157166;23;20009;-73
2023/05/13 05:04:13;;;;;;;14.18;11.85;;;;;;;10.61;85.80;101979.28;6133835;23;20096;-75
2023/05/13 05:06:38;;;;;;;13.07;11.43;;;;;;;10.71;85.05;101988.97;6108874;23;20032;-75
2023/05/13 05:09:04;;;;;;;15.73;11.48;;;;;;;10.83;84.76;101987.28;6108827;23;20101;-73
2023/05/13 05:11:29;;;;;;;13.10;11.32;;;;;;;10.91;85.26;101988.22;6131683;23;20419;-74
2023/05/13 05:13:55;;;;;;;13.68;11.50;;;;;;;11.02;84.47;101991.78;6132025;23;20040;-74
2023/05/13 05:16:20;;;;;;;12.57;11.27;;;;;;;11.17;84.61;101995.34;6132351;23;20437;-74
2023/05/13 05:18:46;;;;;;;13.63;11.00;;;;;;;11.30;84.99;101991.88;6107302;23;20086;-74
2023/05/13 05:21:11;;;;;;;13.02;10.77;;;;;;;11.41;83.73;102002.44;6132343;23;20005;-74
2023/05/13 05:23:37;;;;;;;14.27;11.55;;;;;;;11.37;82.83;101996.28;6154820;23;20017;-73
2023/05/13 05:26:03;;;;;;;14.50;11.85;;;;;;;11.34;82.36;101991.03;6106129;23;20009;-73
2023/05/13 05:28:29;;;;;;;13.50;11.68;;;;;;;11.27;82.04;101999.75;6130483;23;20025;-73
2023/05/13 05:30:54;;;;;;;14.48;11.30;;;;;;;11.47;82.32;101998.94;6156600;23;20009;-73
2023/05/13 05:33:20;;;;;;;14.50;12.10;;;;;;;11.65;83.51;102003.34;6131986;23;20016;-74
2023/05/13 05:35:46;;;;;;;14.95;12.35;;;;;;;11.99;83.73;102009.56;6156535;23;20015;-73
2023/05/13 05:38:11;;;;;;;14.50;11.60;;;;;;;12.07;82.42;101999.97;6107291;23;20100;-73
2023/05/13 05:40:43;;;;;;;12.90;11.60;;;;;;;12.37;82.59;102006.09;6107354;23;20383;-74
2023/05/13 05:43:12;;;;;;;15.35;11.57;;;;;;;12.57;80.86;102002.53;6156403;23;20055;-75
2023/05/13 05:45:38;;;;;;;18.38;11.55;;;;;;;12.64;79.87;102009.56;6132944;23;20013;-83
2023/05/13 05:48:05;;;;;;;11.93;10.65;;;;;;;12.63;77.24;102013.94;6156334;23;20013;-82
2023/05/13 05:50:32;;;;;;;13.70;11.45;;;;;;;12.63;79.18;102018.34;6132192;23;20009;-82
2023/05/13 05:52:58;;;;;;;12.20;10.70;;;;;;;12.80;77.72;102021.81;6131256;23;20031;-82
2023/05/13 05:55:24;;;;;;;13.88;11.63;;;;;;;13.17;79.78;102012.91;6156741;23;20005;-82
2023/05/13 05:57:50;;;;;;;14.70;11.73;;;;;;;13.28;78.32;102021.66;6156757;23;19997;-82
2023/05/13 06:00:16;;;;;;;13.00;10.48;;;;;;;13.40;76.62;102018.09;6130932;23;20088;-82
2023/05/13 06:02:41;;;;;;;12.02;10.75;;;;;;;13.23;75.90;102020.81;6183015;23;20001;-82
2023/05/13 06:05:07;;;;;;;13.32;10.93;;;;;;;13.14;76.13;102026.09;6156970;23;20084;-82
2023/05/13 06:07:33;;;;;;;13.70;11.00;;;;;;;13.32;77.62;102018.13;6155917;23;20055;-83
2023/05/13 06:09:58;;;;;;;11.95;10.85;;;;;;;13.28;75.17;102019.00;6107203;23;20032;-84
2023/05/13 06:12:23;;;;;;;13.20;11.07;;;;;;;13.27;75.72;102021.66;6131745;23;20059;-82
2023/05/13 06:14:49;;;;;;;13.02;11.00;;;;;;;13.25;75.80;102019.03;6155718;23;20013;-82
2023/05/13 06:17:15;;;;;;;16.48;11.70;;;;;;;13.54;76.05;102022.47;6133368;23;20344;-83
2023/05/13 06:19:41;;;;;;;14.52;11.38;;;;;;;13.84;77.27;102024.91;6133501;23;20365;-82
2023/05/13 06:22:08;;;;;;;13.77;12.32;;;;;;;14.26;76.28;102024.59;6133715;23;20355;-83
2023/05/13 06:24:33;;;;;;;13.90;11.98;;;;;;;14.55;77.13;102026.09;6133716;23;20099;-83
2023/05/13 06:26:59;;;;;;;13.68;11.65;;;;;;;14.68;74.12;102024.25;6135210;23;20063;-76
2023/05/13 06:29:26;;;;;;;13.70;12.30;;;;;;;14.67;73.68;102027.78;6160299;23;20020;-76
2023/05/13 06:31:52;;;;;;;16.63;11.45;;;;;;;14.48;72.19;102033.22;6111270;23;20019;-77
2023/05/13 06:34:17;;;;;;;13.45;11.55;;;;;;;14.34;73.05;102032.47;6135366;23;20345;-76
2023/05/13 06:36:43;;;;;;;13.80;12.38;;;;;;;14.56;75.53;102028.72;6134327;23;20017;-76
2023/05/13 06:39:10;;;;;;;13.90;11.50;;;;;;;14.43;72.24;102035.00;6135855;23;20009;-76
2023/05/13 06:41:36;;;;;;;14.00;12.43;;;;;;;14.28;71.85;102040.41;6112805;23;20507;-77
2023/05/13 06:44:02;;;;;;;13.45;11.90;;;;;;;14.14;71.70;102044.03;6161112;23;20011;-76
2023/05/13 06:46:28;;;;;;;13.60;12.05;;;;;;;14.10;71.91;102038.78;6111678;23;20012;-76
2023/05/13 06:48:55;;;;;;;13.90;11.90;;;;;;;13.90;72.22;102041.56;6136425;23;20009;-77
2023/05/13 06:51:21;;;;;;;16.02;12.05;;;;;;;13.87;72.71;102050.34;6112873;23;20009;-77
2023/05/13 06:53:46;;;;;;;14.27;11.93;;;;;;;13.84;72.20;102040.69;6161078;23;20016;-76
2023/05/13 06:56:12;;;;;;;18.42;13.80;;;;;;;14.05;75.89;102044.09;6160902;23;20005;-76
2023/05/13 06:58:37;;;;;;;15.70;12.45;;;;;;;14.00;74.42;102046.75;6137641;22;20027;-82
2023/05/13 07:09:36;;;;;;;14.80;13.30;;;;;;;14.61;76.13;102022.53;6190408;22;20125;-81
2023/05/13 07:12:02;;;;;;;14.65;12.95;;;;;;;15.12;76.30;102030.81;6147768;23;20040;-81
2023/05/13 07:14:30;;;;;;;17.08;13.52;;;;;;;15.52;78.62;102022.38;6137119;23;20408;-82
2023/05/13 07:19:20;;;;;;;13.55;12.15;;;;;;;16.11;70.91;102032.13;6185930;22;20033;-77
2023/05/13 07:21:46;;;;;;;13.68;12.15;;;;;;;16.31;72.27;102038.88;6155193;23;20016;-81
2023/05/13 07:24:13;;;;;;;13.85;11.85;;;;;;;16.62;72.07;102039.19;6152936;23;20029;-83
2023/05/13 07:26:38;;;;;;;13.75;12.23;;;;;;;16.71;68.43;102047.00;6160067;23;20005;-80
2023/05/13 07:29:05;;;;;;;12.77;11.50;;;;;;;16.61;68.85;102041.00;6132807;23;20063;-79
2023/05/13 07:31:30;;;;;;;13.30;11.90;;;;;;;16.72;68.43;102039.91;6109694;23;20009;-81
2023/05/13 07:33:56;;;;;;;16.17;12.40;;;;;;;16.88;69.30;102033.47;6110170;23;20009;-81
2023/05/13 07:36:22;;;;;;;12.82;11.52;;;;;;;16.97;68.51;102043.03;6133814;23;20005;-81
2023/05/13 07:38:48;;;;;;;13.60;12.20;;;;;;;16.93;67.40;102046.63;6157308;23;20005;-76
2023/05/13 07:41:14;;;;;;;11.45;10.25;;;;;;;16.84;63.97;102049.41;6108977;23;20009;-77
2023/05/13 07:43:39;;;;;;;12.50;11.20;;;;;;;17.02;66.28;102050.88;6109418;23;20035;-76
2023/05/13 07:46:05;;;;;;;12.40;10.77;;;;;;;16.84;64.47;102050.28;6109817;23;20016;-76
2023/05/13 07:48:30;;;;;;;12.90;10.77;;;;;;;16.70;66.80;102049.66;6133567;23;20423;-80
2023/05/13 07:50:57;;;;;;;12.82;10.35;;;;;;;16.93;67.03;102052.78;6109577;23;20402;-81
2023/05/13 07:53:22;;;;;;;13.32;10.85;;;;;;;17.06;65.16;102055.22;6107766;23;20020;-79
2023/05/13 07:55:50;;;;;;;11.43;10.27;;;;;;;17.07;64.82;102043.72;6133626;23;20041;-80
2023/05/13 07:58:17;;;;;;;16.55;11.60;;;;;;;17.32;65.94;102049.38;6109103;23;20067;-80
2023/05/13 08:00:42;;;;;;;13.13;11.15;;;;;;;17.26;62.49;102050.38;6133761;23;20096;-81
2023/05/13 08:03:08;;;;;;;14.82;10.65;;;;;;;17.38;62.50;102051.03;6108994;23;20040;-76
2023/05/13 08:05:33;;;;;;;13.90;11.32;;;;;;;17.39;63.55;102050.13;6131562;23;20058;-77
2023/05/13 08:07:59;;;;;;;14.23;10.50;;;;;;;17.63;63.65;102044.28;6133548;23;20464;-77
2023/05/13 08:10:24;;;;;;;16.42;11.23;;;;;;;17.65;63.54;102050.41;6108043;23;20029;-78
2023/05/13 08:12:56;;;;;;;14.35;11.00;;;;;;;17.66;60.88;102060.13;6134018;23;20013;-76
2023/05/13 08:15:21;;;;;;;11.50;10.30;;;;;;;17.78;62.79;102052.81;6110900;23;20005;-78
2023/05/13 08:17:47;;;;;;;12.65;10.75;;;;;;;17.91;61.70;102046.34;6109746;23;20016;-80
2023/05/13 08:20:14;;;;;;;11.85;10.48;;;;;;;18.13;62.73;102053.78;6131376;23;20351;-82
2023/05/13 08:22:40;;;;;;;14.25;10.23;;;;;;;18.14;60.73;102060.84;6132881;23;20467;-79
2023/05/13 08:25:05;;;;;;;13.40;11.13;;;;;;;18.09;61.56;102052.16;6108093;23;20048;-79
2023/05/13 08:27:33;;;;;;;13.88;11.30;;;;;;;18.22;63.22;102058.03;6132900;23;20021;-79
2023/05/13 08:29:59;;;;;;;11.68;10.48;;;;;;;18.47;63.39;102053.81;6131961;23;20427;-79
2023/05/13 08:32:24;;;;;;;15.52;11.68;;;;;;;18.45;63.34;102057.44;6133163;23;20067;-81
2023/05/13 08:34:50;;;;;;;12.23;10.63;;;;;;;18.49;60.12;102059.13;6108608;23;20099;-79
2023/05/13 08:37:15;;;;;;;11.77;10.48;;;;;;;18.58;61.88;102061.53;6107722;23;20064;-80
2023/05/13 08:39:41;;;;;;;10.95;9.82;;;;;;;18.57;58.95;102054.47;6106661;23;20436;-80
2023/05/13 08:42:07;;;;;;;11.30;10.10;;;;;;;18.60;59.46;102057.03;6132483;23;20012;-79
2023/05/13 08:44:38;;;;;;;12.15;10.05;;;;;;;18.61;60.70;102056.13;6132709;23;20009;-81
2023/05/13 08:47:15;;;;;;;11.82;10.52;;;;;;;18.79;59.82;102054.78;6155760;23;20063;-82
2023/05/13 08:49:42;;;;;;;14.75;10.55;;;;;;;18.81;60.26;102049.44;6155498;23;20108;-81
2023/05/13 08:52:07;;;;;;;18.10;11.52;;;;;;;18.78;60.15;102053.03;6157505;23;20009;-80
2023/05/13 08:54:33;;;;;;;13.30;11.50;;;;;;;18.87;60.78;102047.50;6133071;23;20384;-80
2023/05/13 08:56:58;;;;;;;12.82;10.70;;;;;;;19.01;60.98;102047.13;6108663;23;20384;-81
2023/05/13 08:59:25;;;;;;;12.43;10.90;;;;;;;19.00;60.38;102041.84;6132160;23;20421;-80
2023/05/13 09:01:51;;;;;;;12.40;11.10;;;;;;;19.21;59.80;102040.38;6109014;23;20091;-81
2023/05/13 09:04:18;;;;;;;12.60;11.40;;;;;;;19.21;61.54;102045.69;6133694;23;20427;-80
2023/05/13 09:06:47;;;;;;;16.10;11.85;;;;;;;19.27;59.74;102040.19;6156508;23;20116;-80
2023/05/13 09:09:13;;;;;;;15.65;10.90;;;;;;;19.39;61.33;102029.22;6129877;23;20402;-80
2023/05/13 09:11:39;;;;;;;14.18;10.60;;;;;;;19.55;61.64;102040.25;6108106;23;20009;-81
2023/05/13 09:14:06;;;;;;;12.65;11.35;;;;;;;19.54;60.60;102027.88;6156929;23;20001;-80
2023/05/13 09:16:32;;;;;;;12.93;10.07;;;;;;;19.69;60.49;102039.81;6158189;23;20114;-81
2023/05/13 09:19:02;;;;;;;11.30;10.07;;;;;;;19.87;58.08;102035.75;6133326;23;20001;-81
2023/05/13 09:21:34;;;;;;;17.27;10.60;;;;;;;19.82;59.73;102029.69;6158452;23;20015;-81
2023/05/13 09:24:22;;;;;;;12.35;9.75;;;;;;;19.97;59.00;102035.44;6157547;23;20084;-80
2023/05/13 09:26:50;;;;;;;12.98;10.52;;;;;;;20.02;60.70;102033.50;6158112;23;20005;-81
2023/05/13 09:29:29;;;;;;;13.20;9.98;;;;;;;20.11;58.84;102032.31;6158885;23;20001;-80
2023/05/13 09:31:59;;;;;;;12.15;10.13;;;;;;;20.05;58.33;102028.94;6157957;23;20012;-80
2023/05/13 09:34:28;;;;;;;13.40;11.20;;;;;;;20.12;59.28;102028.75;6157067;23;20079;-80
2023/05/13 09:37:00;;;;;;;12.32;10.75;;;;;;;20.13;58.46;102025.16;6157471;23;20083;-79
2023/05/13 09:39:27;;;;;;;12.13;10.23;;;;;;;20.15;58.39;102026.84;6157703;23;20083;-80
2023/05/13 09:41:53;;;;;;;11.55;9.55;;;;;;;20.19;56.93;102027.63;6157824;23;20482;-79
2023/05/13 09:44:19;;;;;;;12.30;10.40;;;;;;;20.25;56.58;102027.41;6109062;23;20008;-82
2023/05/13 09:46:44;;;;;;;12.48;10.05;;;;;;;20.24;55.49;102031.00;6108348;23;20103;-81
2023/05/13 09:49:10;;;;;;;13.15;9.57;;;;;;;20.31;56.80;102029.00;6131893;23;20147;-79
2023/05/13 09:51:35;;;;;;;12.18;9.70;;;;;;;20.28;56.68;102014.00;6132732;23;20086;-79
2023/05/13 09:54:05;;;;;;;71.95;33.65;;;;;;;20.37;58.22;102013.72;6133146;23;20119;-78
2023/05/13 09:56:33;;;;;;;11.10;9.93;;;;;;;20.34;57.71;102019.13;6156236;23;20495;-77
2023/05/13 09:58:59;;;;;;;13.27;10.52;;;;;;;20.31;57.90;102013.91;6157984;23;20400;-78
2023/05/13 10:01:27;;;;;;;10.07;8.52;;;;;;;20.49;54.03;102016.88;6108560;23;20037;-79
2023/05/13 10:03:54;;;;;;;13.77;8.93;;;;;;;20.55;55.85;102006.00;6158102;23;20016;-79
2023/05/13 10:06:23;;;;;;;14.20;9.30;;;;;;;20.65;55.61;102006.53;6133268;23;20028;-80
2023/05/13 10:08:50;;;;;;;10.50;8.35;;;;;;;20.59;54.33;102010.28;6157248;23;20507;-78
2023/05/13 10:11:21;;;;;;;9.95;8.90;;;;;;;20.64;54.12;102008.31;6158152;23;20005;-76
2023/05/13 10:14:00;;;;;;;10.85;8.25;;;;;;;20.71;54.74;102003.69;6156935;23;20016;-78
2023/05/13 10:16:26;;;;;;;11.38;7.75;;;;;;;20.78;53.74;102005.19;6155811;23;20001;-77
2023/05/13 10:18:52;;;;;;;14.20;7.70;;;;;;;20.85;54.48;101998.72;6133607;23;20339;-78
2023/05/13 10:21:20;;;;;;;11.05;6.55;;;;;;;20.87;50.30;101996.00;6133716;23;20012;-77
2023/05/13 10:23:47;;;;;;;9.93;6.80;;;;;;;20.97;50.32;102002.72;6157646;23;20343;-77
2023/05/13 10:26:13;;;;;;;8.23;6.45;;;;;;;20.99;48.68;101995.56;6133555;23;20414;-78
2023/05/13 10:28:39;;;;;;;8.70;5.72;;;;;;;21.01;47.32;101988.38;6132386;23;20009;-77
2023/05/13 10:31:05;;;;;;;10.15;5.70;;;;;;;21.06;46.35;101997.06;6158549;23;20012;-77
2023/05/13 10:33:31;;;;;;;13.60;5.60;;;;;;;21.15;46.49;101995.84;6109421;23;20013;-77
2023/05/13 10:36:20;;;;;;;7.38;4.88;;;;;;;21.16;48.84;102000.25;6132864;23;20017;-77
2023/05/13 10:39:09;;;;;;;6.88;5.28;;;;;;;21.22;48.99;101997.34;6157035;23;20005;-77
2023/05/13 10:41:56;;;;;;;7.15;4.40;;;;;;;21.32;49.77;101992.53;6158189;23;20379;-78
2023/05/13 10:44:22;;;;;;;9.40;5.10;;;;;;;21.19;45.18;101993.91;6157237;23;20009;-79
2023/05/13 10:46:48;;;;;;;8.30;5.00;;;;;;;21.15;45.25;101978.97;6157400;23;20346;-77
2023/05/13 10:49:17;;;;;;;6.90;5.18;;;;;;;21.18;45.76;101989.53;6132434;23;20025;-76
2023/05/13 10:51:47;;;;;;;6.95;4.47;;;;;;;21.14;45.52;101987.91;6133797;23;20464;-77
2023/05/13 10:54:20;;;;;;;7.88;4.40;;;;;;;21.26;46.94;101987.44;6157335;23;20032;-77
2023/05/13 10:56:56;;;;;;;7.20;4.47;;;;;;;21.29;44.99;101977.53;6133249;23;20502;-78
2023/05/13 10:59:22;;;;;;;8.77;4.85;;;;;;;21.37;45.43;101974.56;6156005;23;20009;-77
2023/05/13 11:01:48;;;;;;;9.25;4.90;;;;;;;21.42;44.82;101975.25;6158393;23;20072;-76
2023/05/13 11:04:16;;;;;;;6.65;4.25;;;;;;;21.45;46.57;101982.28;6158844;23;20087;-76
2023/05/13 11:06:45;;;;;;;8.57;4.40;;;;;;;21.43;42.31;101977.00;6134513;23;20124;-77
2023/05/13 11:09:13;;;;;;;6.20;4.18;;;;;;;21.49;45.86;101980.34;6159059;23;20072;-76
2023/05/13 11:11:39;;;;;;;7.80;4.20;;;;;;;21.63;44.70;101972.69;6159592;23;20016;-77
2023/05/13 11:14:15;;;;;;;8.27;4.15;;;;;;;21.64;41.62;101985.09;6133587;23;20120;-76
2023/05/13 11:16:46;;;;;;;6.97;3.90;;;;;;;21.67;41.55;101987.63;6134187;23;20028;-77
2023/05/13 11:19:47;;;;;;;5.82;3.90;;;;;;;21.74;42.47;101970.44;6159460;23;20024;-78
2023/05/13 11:22:17;;;;;;;5.28;3.97;;;;;;;21.85;45.22;101969.13;6125308;23;20016;-75
2023/05/13 11:25:01;;;;;;;;;;;;;;;21.84;40.27;101967.38;6185926;23;20415;-77